Time;durP1;ratioP1;P1;durP2;ratioP2;P2;SDS_P1;SDS_P2;PMS_P1;PMS_P2;Temp;Humidity;BMP_temperature;BMP_pressure;BME280_temperature;BME280_humidity;BME280_pressure;Samples;Min_cycle;Max_cycle;Signal;HPM_P1;HPM_P2
2021/09/27 00:00:56;;;;;;;10.68;8.18;;;;;;;11.20;71.70;99968.16;5053556;28;20083;-57
2021/09/27 00:03:22;;;;;;;11.93;8.35;;;;;;;11.18;71.73;99964.75;5054336;28;20112;-55
2021/09/27 00:05:48;;;;;;;9.70;8.20;;;;;;;11.19;71.73;99964.59;5054001;28;20029;-53
2021/09/27 00:08:13;;;;;;;12.57;8.68;;;;;;;11.10;71.71;99959.16;5053929;28;20049;-55
2021/09/27 00:10:59;;;;;;;11.50;8.90;;;;;;;11.24;71.46;99974.97;5054048;28;20044;-57
2021/09/27 00:13:27;;;;;;;12.77;8.43;;;;;;;11.27;71.04;99976.53;5053741;28;20048;-56
2021/09/27 00:15:54;;;;;;;11.70;8.18;;;;;;;11.22;70.97;99976.91;5053932;28;20119;-57
2021/09/27 00:18:20;;;;;;;10.25;7.78;;;;;;;11.13;71.12;99970.47;5053680;28;20047;-57
2021/09/27 00:20:50;;;;;;;9.57;8.18;;;;;;;11.17;71.45;99979.13;5053917;28;20068;-58
2021/09/27 00:23:17;;;;;;;10.25;7.90;;;;;;;11.14;71.34;99982.06;5053763;28;20070;-55
2021/09/27 00:25:43;;;;;;;8.73;7.70;;;;;;;11.12;71.03;99975.97;5054024;28;20091;-56
2021/09/27 00:28:09;;;;;;;9.20;7.43;;;;;;;11.11;70.55;99971.59;5053959;28;20459;-54
2021/09/27 00:30:35;;;;;;;11.88;8.15;;;;;;;11.01;70.72;99983.03;5053635;28;20117;-54
2021/09/27 00:33:02;;;;;;;9.23;7.75;;;;;;;10.91;71.09;99980.22;5053578;28;20108;-57
2021/09/27 00:35:30;;;;;;;9.27;7.65;;;;;;;10.92;70.96;99997.16;5053479;28;20036;-56
2021/09/27 00:37:56;;;;;;;10.65;8.07;;;;;;;10.85;71.03;99998.59;5053442;28;20065;-56
2021/09/27 00:40:26;;;;;;;9.80;7.45;;;;;;;10.85;71.33;99995.91;5053453;28;20462;-57
2021/09/27 00:42:53;;;;;;;10.38;7.97;;;;;;;10.78;71.63;99998.25;5051821;28;20451;-54
2021/09/27 00:45:22;;;;;;;8.95;7.50;;;;;;;10.81;71.55;100006.03;5053488;28;20037;-56
2021/09/27 00:47:48;;;;;;;12.23;8.75;;;;;;;10.73;71.28;99998.63;5053226;28;20159;-57
2021/09/27 00:50:16;;;;;;;9.95;7.97;;;;;;;10.72;71.73;100009.44;5053450;28;20128;-58
2021/09/27 00:52:42;;;;;;;11.68;8.38;;;;;;;10.51;71.63;99979.84;5053361;28;20377;-56
2021/09/27 00:55:11;;;;;;;10.98;8.07;;;;;;;10.70;71.69;100011.38;5052987;28;20037;-56
2021/09/27 00:57:37;;;;;;;10.68;8.88;;;;;;;10.65;71.71;100021.59;5053114;28;20033;-54
2021/09/27 01:00:05;;;;;;;12.73;9.10;;;;;;;10.61;71.88;100016.50;5053156;28;20032;-54
2021/09/27 01:02:31;;;;;;;13.38;8.65;;;;;;;10.54;72.00;100009.06;5051028;28;20024;-54
2021/09/27 01:04:57;;;;;;;11.00;8.40;;;;;;;10.60;71.74;100019.28;5052379;28;20036;-59
2021/09/27 01:07:38;;;;;;;11.00;8.70;;;;;;;10.72;72.23;100033.53;5053024;28;20515;-56
2021/09/27 01:10:46;;;;;;;12.32;8.48;;;;;;;10.75;71.87;100034.16;5052730;28;20101;-55
2021/09/27 01:13:30;;;;;;;10.40;8.57;;;;;;;10.71;71.56;100038.06;5052345;28;20377;-53
2021/09/27 01:16:14;;;;;;;12.07;8.57;;;;;;;10.71;71.89;100048.75;5052469;28;20049;-52
2021/09/27 01:19:00;;;;;;;10.70;8.38;;;;;;;10.81;71.88;100048.91;5052870;28;20051;-55
2021/09/27 01:21:43;;;;;;;10.30;8.93;;;;;;;10.78;71.42;100046.47;5052848;28;20039;-55
2021/09/27 01:24:39;;;;;;;12.10;9.10;;;;;;;10.88;71.75;100046.59;5052267;28;20388;-56
2021/09/27 01:27:05;;;;;;;12.52;9.38;;;;;;;10.79;71.67;100055.34;5052562;28;20480;-53
2021/09/27 01:29:39;;;;;;;10.90;8.85;;;;;;;10.80;71.80;100060.59;5052635;28;20033;-51
2021/09/27 01:32:26;;;;;;;10.98;9.27;;;;;;;10.84;71.91;100067.41;5052464;28;20036;-55
2021/09/27 01:35:13;;;;;;;12.32;9.43;;;;;;;10.88;71.80;100073.38;5052546;28;20093;-56
2021/09/27 01:37:46;;;;;;;11.60;9.57;;;;;;;10.80;71.53;100062.41;5052253;28;20463;-57
2021/09/27 01:40:43;;;;;;;13.13;9.82;;;;;;;10.78;71.41;100057.19;5052327;28;20072;-52
2021/09/27 01:43:32;;;;;;;14.77;9.88;;;;;;;10.83;71.51;100072.88;5052306;28;20544;-54
2021/09/27 01:46:04;;;;;;;11.48;9.38;;;;;;;10.64;71.52;100068.97;5052084;28;20542;-52
2021/09/27 01:48:48;;;;;;;11.40;9.32;;;;;;;10.69;71.74;100071.25;5052017;28;20044;-53
2021/09/27 01:51:50;;;;;;;14.10;9.75;;;;;;;10.72;71.69;100071.03;5051591;28;20033;-59
2021/09/27 01:54:40;;;;;;;11.35;9.13;;;;;;;10.75;71.96;100093.06;5051881;28;20036;-55
2021/09/27 01:57:08;;;;;;;11.82;9.10;;;;;;;10.67;71.77;100094.63;5051672;28;20037;-52
2021/09/27 01:59:59;;;;;;;12.27;9.80;;;;;;;10.77;72.08;100101.84;5051779;28;20033;-53
2021/09/27 02:02:47;;;;;;;12.98;9.65;;;;;;;10.77;72.07;100095.66;5051027;28;20485;-52
2021/09/27 02:05:35;;;;;;;14.95;9.40;;;;;;;10.75;71.45;100109.13;5050427;28;20067;-53
2021/09/27 02:08:01;;;;;;;11.80;9.65;;;;;;;10.65;71.64;100105.47;5051636;28;20041;-54
2021/09/27 02:10:35;;;;;;;11.30;8.90;;;;;;;10.70;71.58;100105.97;5051638;28;20053;-60
2021/09/27 02:13:18;;;;;;;12.85;9.23;;;;;;;10.79;71.58;100109.78;5051979;28;20068;-53
2021/09/27 02:16:04;;;;;;;12.88;9.07;;;;;;;10.83;71.22;100103.19;5050397;28;20475;-57
2021/09/27 02:18:36;;;;;;;12.77;9.15;;;;;;;10.87;70.89;100115.38;5051530;28;20126;-55
2021/09/27 02:21:08;;;;;;;12.52;8.23;;;;;;;10.83;70.75;100100.53;5051710;28;20040;-55
2021/09/27 02:23:52;;;;;;;12.38;8.45;;;;;;;10.94;70.93;100105.03;5051231;28;20028;-51
2021/09/27 02:26:19;;;;;;;10.30;8.15;;;;;;;10.83;70.53;100105.00;5054572;28;20158;-50
2021/09/27 02:28:45;;;;;;;8.50;7.30;;;;;;;10.83;70.49;100110.38;5069840;28;20437;-51
2021/09/27 02:31:38;;;;;;;9.52;8.05;;;;;;;10.95;70.13;100113.91;5070133;28;20038;-51
2021/09/27 02:34:13;;;;;;;8.85;7.32;;;;;;;10.90;70.30;100116.97;5071390;28;20024;-53
2021/09/27 02:36:54;;;;;;;8.85;7.47;;;;;;;10.93;69.95;100119.41;5071486;28;20060;-55
2021/09/27 02:39:34;;;;;;;8.00;6.88;;;;;;;10.90;70.09;100112.47;5071600;28;20101;-55
2021/09/27 02:42:08;;;;;;;8.32;7.10;;;;;;;10.95;69.68;100125.50;5071072;28;20033;-56
2021/09/27 02:44:35;;;;;;;11.70;6.43;;;;;;;10.87;70.13;100122.56;5071464;28;20024;-55
2021/09/27 02:47:05;;;;;;;12.15;6.85;;;;;;;10.90;69.65;100139.25;5071546;28;20059;-54
2021/09/27 02:49:42;;;;;;;8.00;6.28;;;;;;;10.90;69.69;100144.59;5071400;28;20381;-52
2021/09/27 02:52:08;;;;;;;8.18;7.20;;;;;;;10.90;69.75;100133.88;5071276;28;20035;-54
2021/09/27 02:54:49;;;;;;;9.13;6.85;;;;;;;10.99;69.76;100147.56;5071567;28;20362;-54
2021/09/27 02:57:47;;;;;;;8.40;6.57;;;;;;;10.94;69.37;100145.22;5071263;28;20457;-54
2021/09/27 03:00:22;;;;;;;7.63;6.35;;;;;;;10.96;69.37;100145.97;5071251;28;20040;-53
2021/09/27 03:03:15;;;;;;;9.65;6.72;;;;;;;10.97;69.52;100154.84;5071067;28;20449;-56
2021/09/27 03:06:15;;;;;;;7.60;6.43;;;;;;;10.97;69.37;100149.47;5072536;28;20040;-54
2021/09/27 03:08:51;;;;;;;7.72;6.22;;;;;;;10.89;69.52;100148.25;5075231;28;20142;-55
2021/09/27 03:11:38;;;;;;;7.88;6.50;;;;;;;10.95;69.21;100157.66;5075079;28;20039;-54
2021/09/27 03:14:30;;;;;;;13.60;6.88;;;;;;;10.96;69.50;100158.50;5075045;28;20388;-51
2021/09/27 03:17:12;;;;;;;8.80;6.85;;;;;;;10.89;69.18;100152.78;5075027;28;20025;-53
2021/09/27 03:19:56;;;;;;;10.52;6.90;;;;;;;10.89;69.43;100160.81;5074680;28;20081;-52
2021/09/27 03:22:42;;;;;;;11.27;6.82;;;;;;;10.74;69.21;100152.97;5075240;28;20376;-54
2021/09/27 03:25:35;;;;;;;9.55;6.85;;;;;;;10.82;69.73;100163.09;5074962;28;20032;-54
2021/09/27 03:28:14;;;;;;;8.68;6.38;;;;;;;10.75;69.40;100164.53;5074537;28;20042;-54
2021/09/27 03:31:16;;;;;;;7.97;6.75;;;;;;;10.81;69.55;100169.44;5074721;28;20037;-54
2021/09/27 03:33:47;;;;;;;10.65;6.78;;;;;;;10.74;69.53;100179.75;5075001;28;20039;-54
2021/09/27 03:36:57;;;;;;;9.73;6.68;;;;;;;10.90;69.64;100181.28;5075044;28;20036;-51
2021/09/27 03:39:39;;;;;;;7.65;6.25;;;;;;;10.86;68.82;100187.84;5072463;28;20028;-55
2021/09/27 03:42:38;;;;;;;7.57;6.03;;;;;;;10.83;68.72;100190.72;5074458;28;20353;-52
2021/09/27 03:45:15;;;;;;;13.88;6.70;;;;;;;10.85;68.32;100186.09;5073887;28;20044;-53
2021/09/27 03:47:59;;;;;;;7.00;5.97;;;;;;;10.75;68.58;100181.44;5074036;28;20029;-53
2021/09/27 03:50:39;;;;;;;8.27;6.38;;;;;;;10.72;68.84;100181.69;5074409;28;20444;-50
2021/09/27 03:53:13;;;;;;;11.07;7.05;;;;;;;10.51;68.57;100148.50;5074027;28;20039;-57
2021/09/27 03:55:45;;;;;;;9.60;6.47;;;;;;;10.71;68.96;100184.47;5074615;28;20078;-57
2021/09/27 03:58:23;;;;;;;11.13;6.18;;;;;;;10.70;68.61;100201.50;5074359;28;20549;-56
2021/09/27 04:00:49;;;;;;;8.85;5.90;;;;;;;10.66;68.83;100197.34;5073945;28;20060;-52
2021/09/27 04:03:27;;;;;;;9.52;6.10;;;;;;;10.76;68.43;100199.22;5074288;28;20091;-52
2021/09/27 04:06:20;;;;;;;8.40;5.88;;;;;;;10.74;68.33;100197.66;5074195;28;20080;-56
2021/09/27 04:09:24;;;;;;;7.55;6.00;;;;;;;10.84;68.79;100201.34;5074086;28;20048;-52
2021/09/27 04:11:50;;;;;;;6.55;5.32;;;;;;;10.77;68.13;100192.06;5073833;28;20032;-49
2021/09/27 04:14:42;;;;;;;6.93;5.38;;;;;;;10.83;68.36;100190.72;5073777;28;20047;-53
2021/09/27 04:17:40;;;;;;;9.00;5.65;;;;;;;10.87;68.15;100197.56;5074100;28;20043;-54
2021/09/27 04:20:36;;;;;;;7.55;4.93;;;;;;;10.88;67.90;100199.28;5073404;28;20064;-56
2021/09/27 04:23:17;;;;;;;8.60;5.00;;;;;;;10.90;67.76;100189.31;5073762;28;20041;-53
2021/09/27 04:26:06;;;;;;;7.90;5.05;;;;;;;10.96;67.21;100180.78;5073687;28;20037;-51
2021/09/27 04:28:48;;;;;;;8.50;4.50;;;;;;;10.96;66.86;100202.22;5072384;28;20031;-54
2021/09/27 04:31:23;;;;;;;12.48;4.97;;;;;;;10.98;67.21;100194.91;5073733;28;20040;-55
2021/09/27 04:34:08;;;;;;;8.38;4.65;;;;;;;10.99;66.69;100201.97;5073827;28;20086;-53
2021/09/27 04:36:38;;;;;;;6.00;4.22;;;;;;;11.06;66.76;100202.38;5073263;28;20044;-51
2021/09/27 04:39:13;;;;;;;5.40;4.30;;;;;;;11.10;66.49;100209.19;5073659;28;20036;-56
2021/09/27 04:41:44;;;;;;;8.27;4.60;;;;;;;11.13;66.34;100208.13;5072323;28;20036;-55
2021/09/27 04:44:47;;;;;;;8.90;4.00;;;;;;;11.23;66.57;100209.09;5073515;28;20033;-54
2021/09/27 04:47:43;;;;;;;5.10;4.03;;;;;;;11.21;66.33;100213.72;5073131;28;20173;-54
2021/09/27 04:50:26;;;;;;;5.75;3.92;;;;;;;11.19;66.32;100213.00;5073120;28;20071;-57
2021/09/27 04:53:02;;;;;;;6.22;4.18;;;;;;;11.09;66.43;100215.53;5072965;28;20057;-55
2021/09/27 04:55:36;;;;;;;6.88;4.65;;;;;;;11.08;66.50;100211.16;5073056;28;20470;-54
2021/09/27 04:58:14;;;;;;;5.88;5.03;;;;;;;11.17;66.92;100209.59;5073141;28;20032;-54
2021/09/27 05:01:04;;;;;;;6.60;4.30;;;;;;;11.26;66.58;100211.53;5072929;28;20518;-58
2021/09/27 05:04:00;;;;;;;9.43;4.68;;;;;;;11.27;66.60;100215.94;5072986;28;20025;-56
2021/09/27 05:06:34;;;;;;;10.18;4.20;;;;;;;11.29;66.39;100215.81;5072869;28;20126;-56
2021/09/27 05:09:23;;;;;;;8.60;4.70;;;;;;;11.28;66.60;100219.47;5072966;28;20385;-54
2021/09/27 05:12:05;;;;;;;8.02;4.30;;;;;;;11.31;66.55;100200.47;5072633;28;20408;-50
2021/09/27 05:14:53;;;;;;;6.88;4.60;;;;;;;11.42;66.42;100218.41;5072257;28;20031;-56
2021/09/27 05:17:46;;;;;;;9.23;4.72;;;;;;;11.38;66.29;100214.25;5072439;28;20861;-53
2021/09/27 05:20:33;;;;;;;6.18;4.20;;;;;;;11.25;66.27;100217.03;5072802;28;20538;-54
2021/09/27 05:23:34;;;;;;;8.18;4.63;;;;;;;11.27;66.65;100217.78;5073112;28;20037;-56
2021/09/27 05:26:27;;;;;;;6.80;4.50;;;;;;;11.30;66.91;100220.22;5071371;28;20425;-53
2021/09/27 05:29:11;;;;;;;10.00;4.63;;;;;;;11.37;66.61;100225.97;5072500;28;20055;-55
2021/09/27 05:31:53;;;;;;;7.75;4.57;;;;;;;11.41;66.56;100224.75;5072016;28;20055;-54
2021/09/27 05:34:27;;;;;;;6.13;4.30;;;;;;;11.44;66.34;100224.50;5041471;28;20026;-55
2021/09/27 05:37:09;;;;;;;8.27;4.20;;;;;;;11.55;65.98;100231.72;5032078;28;20037;-52
2021/09/27 05:40:13;;;;;;;5.57;3.90;;;;;;;11.71;65.76;100237.59;5030945;28;20469;-56
2021/09/27 05:43:05;;;;;;;4.85;3.97;;;;;;;11.70;65.59;100229.66;5030601;28;20037;-53
2021/09/27 05:45:59;;;;;;;6.75;4.22;;;;;;;11.61;65.08;100202.59;5030594;28;20037;-53
2021/09/27 05:48:45;;;;;;;6.57;3.85;;;;;;;11.87;65.19;100241.72;5038154;28;20401;-55
2021/09/27 05:51:20;;;;;;;5.90;3.95;;;;;;;11.75;65.03;100233.69;5029973;28;20033;-55
2021/09/27 05:53:54;;;;;;;5.90;4.47;;;;;;;11.79;64.98;100242.31;5031596;28;20065;-54
2021/09/27 05:56:32;;;;;;;5.82;4.57;;;;;;;11.89;65.09;100246.00;5031540;28;20258;-54
2021/09/27 05:59:12;;;;;;;5.57;4.00;;;;;;;12.01;64.71;100240.63;5032107;28;20053;-53
2021/09/27 06:02:06;;;;;;;4.80;4.03;;;;;;;12.15;64.41;100247.56;5031481;28;20064;-55
2021/09/27 06:05:03;;;;;;;7.25;4.30;;;;;;;12.20;64.30;100256.13;5031773;28;20120;-55
2021/09/27 06:07:33;;;;;;;;;;;;;;;12.51;63.94;100255.44;5031879;28;20053;-56
2021/09/27 06:10:04;;;;;;;6.50;3.70;;;;;;;12.40;63.14;100256.31;5032162;28;19921;-55
2021/09/27 06:13:17;;;;;;;6.00;3.80;;;;;;;12.44;63.51;100253.28;5031969;28;20049;-55
2021/09/27 06:15:51;;;;;;;5.05;3.80;;;;;;;12.40;63.17;100251.81;5030721;28;20080;-57
2021/09/27 06:18:25;;;;;;;7.43;3.75;;;;;;;12.45;63.32;100254.97;5034319;28;20033;-56
2021/09/27 06:21:11;;;;;;;6.43;3.85;;;;;;;12.53;63.04;100257.03;5031897;28;20041;-51
2021/09/27 06:23:52;;;;;;;7.07;3.95;;;;;;;12.52;62.98;100257.16;5031255;28;20109;-61
2021/09/27 06:26:23;;;;;;;8.55;3.95;;;;;;;12.40;62.99;100257.19;5031769;28;20045;-58
2021/09/27 06:29:04;;;;;;;4.82;3.80;;;;;;;12.37;63.25;100273.56;5031656;28;20045;-61
2021/09/27 06:31:41;;;;;;;6.97;4.07;;;;;;;12.22;63.60;100264.06;5031260;28;20033;-60
2021/09/27 06:34:17;;;;;;;5.93;3.88;;;;;;;12.19;64.13;100270.53;5031202;28;20381;-61
2021/09/27 06:36:44;;;;;;;5.38;3.78;;;;;;;12.12;63.88;100271.97;5031651;28;20112;-59
2021/09/27 06:39:17;;;;;;;7.97;4.10;;;;;;;12.13;64.42;100279.94;5031102;28;20069;-60
2021/09/27 06:41:47;;;;;;;7.22;3.92;;;;;;;12.07;64.80;100283.09;5030170;28;20025;-60
2021/09/27 06:44:13;;;;;;;6.15;4.00;;;;;;;11.97;65.49;100290.13;5031489;28;20068;-60
2021/09/27 06:46:39;;;;;;;5.95;4.20;;;;;;;11.86;65.61;100277.56;5030075;28;20141;-60
2021/09/27 06:49:07;;;;;;;5.65;4.03;;;;;;;11.75;65.86;100290.00;5030699;28;20030;-58
2021/09/27 06:51:32;;;;;;;7.25;4.05;;;;;;;11.58;66.84;100293.13;5030747;28;20053;-59
2021/09/27 06:53:58;;;;;;;7.47;3.88;;;;;;;11.50;67.78;100296.41;5031483;28;20308;-59
2021/09/27 06:56:23;;;;;;;10.25;4.22;;;;;;;11.52;67.50;100293.63;5031081;28;20028;-61
2021/09/27 06:58:49;;;;;;;5.60;3.60;;;;;;;11.49;67.26;100289.34;5030705;28;20026;-60
2021/09/27 07:01:14;;;;;;;7.53;4.07;;;;;;;11.60;67.28;100297.44;5030618;28;20030;-60
2021/09/27 07:03:39;;;;;;;7.97;4.18;;;;;;;11.78;67.08;100302.31;5029810;28;20030;-60
2021/09/27 07:06:05;;;;;;;9.25;4.20;;;;;;;11.87;66.67;100298.91;5057688;28;20033;-59
2021/09/27 07:08:30;;;;;;;8.65;4.28;;;;;;;11.99;66.31;100298.91;5069505;28;20035;-57
2021/09/27 07:10:56;;;;;;;7.32;3.90;;;;;;;12.08;65.91;100306.28;5069127;28;20040;-59
2021/09/27 07:13:22;;;;;;;8.00;4.20;;;;;;;12.14;65.98;100311.16;5066062;28;20052;-55
2021/09/27 07:15:48;;;;;;;7.20;4.75;;;;;;;12.16;65.51;100309.22;5041551;28;20044;-56
2021/09/27 07:18:14;;;;;;;6.78;4.15;;;;;;;12.14;65.52;100305.78;5050390;28;20036;-60
2021/09/27 07:20:40;;;;;;;7.25;4.40;;;;;;;12.18;65.39;100318.00;5050475;28;20037;-58
2021/09/27 07:23:05;;;;;;;7.40;4.18;;;;;;;12.25;64.67;100317.50;5051309;28;20029;-60
2021/09/27 07:25:32;;;;;;;10.63;3.85;;;;;;;12.23;65.01;100319.44;5051360;28;20449;-56
2021/09/27 07:27:58;;;;;;;7.55;4.00;;;;;;;12.26;64.62;100320.06;5050601;28;20389;-57
2021/09/27 07:30:25;;;;;;;7.88;3.90;;;;;;;12.38;64.25;100317.34;5050566;28;20039;-58
2021/09/27 07:32:51;;;;;;;7.80;3.50;;;;;;;12.46;63.61;100314.94;5050983;28;20033;-56
2021/09/27 07:35:19;;;;;;;6.82;3.78;;;;;;;12.64;63.42;100326.00;5050602;28;20048;-56
2021/09/27 07:37:44;;;;;;;5.70;3.20;;;;;;;12.66;62.26;100326.72;5050435;28;20036;-57
2021/09/27 07:40:14;;;;;;;8.15;3.22;;;;;;;12.72;62.55;100336.97;5050414;28;20539;-58
2021/09/27 07:42:40;;;;;;;6.30;3.00;;;;;;;12.71;62.54;100332.56;5050300;28;20025;-58
2021/09/27 07:45:08;;;;;;;8.50;3.47;;;;;;;12.82;62.07;100330.84;5051060;28;20025;-54
2021/09/27 07:47:34;;;;;;;3.70;2.80;;;;;;;12.90;61.88;100328.38;5049008;28;20124;-57
2021/09/27 07:49:59;;;;;;;5.70;2.92;;;;;;;12.98;61.57;100335.81;5050629;28;20194;-58
2021/09/27 07:52:25;;;;;;;8.23;2.90;;;;;;;12.98;60.53;100342.03;5052574;28;20046;-58
2021/09/27 07:54:51;;;;;;;8.45;3.35;;;;;;;12.92;61.16;100337.16;5053878;28;20025;-58
2021/09/27 07:57:18;;;;;;;14.70;3.47;;;;;;;12.92;61.70;100343.41;5054046;28;20033;-57
2021/09/27 07:59:43;;;;;;;5.40;2.80;;;;;;;12.99;61.83;100337.53;5054249;28;20032;-58
2021/09/27 08:02:09;;;;;;;8.63;2.80;;;;;;;13.11;60.58;100346.41;5053863;28;20025;-58
2021/09/27 08:04:35;;;;;;;7.93;2.90;;;;;;;13.20;60.02;100345.63;5054228;28;20108;-60
2021/09/27 08:07:01;;;;;;;7.72;3.83;;;;;;;13.24;59.66;100352.44;5054305;28;20049;-59
2021/09/27 08:09:27;;;;;;;6.07;2.80;;;;;;;13.24;59.73;100355.13;5053532;28;20393;-60
2021/09/27 08:11:52;;;;;;;14.48;2.95;;;;;;;13.22;59.90;100354.41;5053514;28;20048;-61
2021/09/27 08:14:18;;;;;;;9.10;3.50;;;;;;;13.21;59.88;100366.16;5054020;28;20029;-61
2021/09/27 08:16:44;;;;;;;8.45;3.30;;;;;;;12.99;60.28;100354.47;5053674;28;20036;-63
2021/09/27 08:19:10;;;;;;;8.75;3.90;;;;;;;12.97;60.66;100363.69;5053676;28;20461;-65
2021/09/27 08:21:35;;;;;;;11.95;3.55;;;;;;;12.86;60.08;100365.38;5053811;28;20036;-56
2021/09/27 08:24:01;;;;;;;8.68;4.03;;;;;;;12.74;61.08;100372.63;5053768;28;20087;-57
2021/09/27 08:26:26;;;;;;;8.98;3.85;;;;;;;12.65;61.26;100370.69;5053507;28;20032;-58
2021/09/27 08:28:52;;;;;;;18.63;3.90;;;;;;;12.61;61.20;100369.25;5053596;28;20033;-55
2021/09/27 08:31:20;;;;;;;8.77;4.35;;;;;;;12.68;61.39;100367.75;5053700;28;20075;-58
2021/09/27 08:33:50;;;;;;;10.85;3.85;;;;;;;12.65;60.99;100373.38;5051945;28;20029;-62
2021/09/27 08:36:17;;;;;;;8.85;3.50;;;;;;;12.55;61.12;100369.75;5053035;28;20025;-63
2021/09/27 08:38:44;;;;;;;11.95;3.70;;;;;;;12.49;61.65;100371.91;5052347;28;20043;-61
2021/09/27 08:41:37;;;;;;;9.43;3.50;;;;;;;12.53;61.89;100369.84;5053478;28;20025;-61
2021/09/27 08:44:21;;;;;;;14.88;3.63;;;;;;;12.49;61.94;100368.38;5053101;28;20043;-62
2021/09/27 08:46:51;;;;;;;11.57;3.50;;;;;;;12.49;61.71;100377.28;5053442;28;20037;-61
2021/09/27 08:49:32;;;;;;;12.50;3.50;;;;;;;12.54;61.76;100378.75;5053296;28;20029;-62
2021/09/27 08:51:58;;;;;;;16.88;3.78;;;;;;;12.44;61.39;100373.28;5053339;28;20140;-62
2021/09/27 08:54:29;;;;;;;12.00;3.45;;;;;;;12.43;61.45;100376.94;5053030;28;20060;-63
2021/09/27 08:57:24;;;;;;;20.65;2.70;;;;;;;12.47;61.28;100373.03;5051484;28;20033;-63
2021/09/27 08:59:59;;;;;;;21.15;3.40;;;;;;;12.45;61.27;100375.00;5053136;28;20421;-63
2021/09/27 09:02:45;;;;;;;9.80;3.15;;;;;;;12.61;61.13;100375.44;5046040;28;20059;-63
2021/09/27 09:05:27;;;;;;;12.50;2.75;;;;;;;12.66;60.64;100377.78;5050603;28;20040;-63
2021/09/27 09:08:17;;;;;;;20.98;3.15;;;;;;;12.95;60.62;100385.28;5052357;28;20052;-64
2021/09/27 09:11:03;;;;;;;18.27;3.55;;;;;;;12.93;59.96;100376.50;5052451;28;20045;-61
2021/09/27 09:13:42;;;;;;;14.45;3.22;;;;;;;12.98;59.86;100382.34;5052494;28;20032;-63
2021/09/27 09:16:12;;;;;;;20.42;3.70;;;;;;;13.03;59.71;100387.34;5052358;28;20029;-63
2021/09/27 09:18:45;;;;;;;15.32;3.40;;;;;;;13.07;59.47;100388.81;5052958;28;20104;-61
2021/09/27 09:21:19;;;;;;;20.52;3.40;;;;;;;12.95;59.51;100385.28;5052733;28;20459;-62
2021/09/27 09:23:51;;;;;;;19.13;3.60;;;;;;;12.85;60.05;100389.72;5052309;28;20025;-62
2021/09/27 09:26:24;;;;;;;25.50;4.35;;;;;;;12.60;60.98;100380.97;5049051;28;20039;-63
2021/09/27 09:28:52;;;;;;;14.30;3.60;;;;;;;12.46;60.80;100393.66;5051704;28;20091;-62
2021/09/27 09:31:26;;;;;;;17.48;3.88;;;;;;;12.46;60.84;100396.34;5052123;28;20033;-64
2021/09/27 09:34:27;;;;;;;10.13;3.10;;;;;;;12.44;61.34;100392.91;5036656;28;20030;-62
2021/09/27 09:36:55;;;;;;;14.30;2.90;;;;;;;12.40;60.74;100393.28;5034638;28;20095;-63
2021/09/27 09:39:31;;;;;;;23.13;3.20;;;;;;;12.48;60.96;100398.91;5031922;28;20025;-62
2021/09/27 09:42:21;;;;;;;15.45;3.30;;;;;;;12.28;61.00;100362.88;5031962;28;20596;-62
2021/09/27 09:44:50;;;;;;;20.42;3.47;;;;;;;12.42;61.17;100407.44;5030375;28;20561;-61
2021/09/27 09:47:18;;;;;;;14.52;3.22;;;;;;;12.50;60.88;100407.69;5032592;28;20064;-60
2021/09/27 09:50:08;;;;;;;16.83;3.25;;;;;;;12.62;61.17;100413.91;5032083;28;20125;-63
2021/09/27 09:52:51;;;;;;;15.90;3.15;;;;;;;12.54;60.97;100409.16;5031735;28;20033;-62
2021/09/27 09:55:29;;;;;;;11.35;3.28;;;;;;;12.41;60.97;100414.66;5034751;28;20163;-61
2021/09/27 09:58:03;;;;;;;15.70;3.30;;;;;;;12.51;60.98;100413.91;5051450;28;20036;-62
2021/09/27 10:00:34;;;;;;;19.33;3.38;;;;;;;12.50;60.87;100413.06;5051375;28;20075;-62
2021/09/27 10:03:01;;;;;;;15.90;3.28;;;;;;;12.53;60.61;100401.22;5049992;28;20123;-58
2021/09/27 10:05:35;;;;;;;17.38;4.07;;;;;;;12.62;59.99;100382.53;5051701;28;20033;-61
2021/09/27 10:08:04;;;;;;;13.80;3.30;;;;;;;12.91;59.30;100413.41;5050540;28;20507;-59
2021/09/27 10:10:41;;;;;;;19.80;3.72;;;;;;;13.03;59.52;100408.84;5051898;28;20094;-57
2021/09/27 10:13:26;;;;;;;17.00;3.78;;;;;;;13.23;59.26;100415.28;5051813;28;20037;-57
2021/09/27 10:15:53;;;;;;;18.35;4.20;;;;;;;13.08;58.11;100385.13;5050946;28;20052;-56
2021/09/27 10:18:24;;;;;;;14.88;3.47;;;;;;;13.41;58.24;100417.44;5050839;28;20029;-54
2021/09/27 10:21:18;;;;;;;17.55;3.13;;;;;;;13.52;58.10;100419.25;5030027;28;20112;-57
2021/09/27 10:23:50;;;;;;;16.15;3.30;;;;;;;13.45;57.38;100426.97;5031428;28;20095;-58
2021/09/27 10:26:29;;;;;;;16.35;4.03;;;;;;;13.50;57.38;100422.06;5031362;28;20025;-56
2021/09/27 10:29:02;;;;;;;17.13;3.47;;;;;;;13.22;57.99;100424.31;5031117;28;20022;-57
2021/09/27 10:31:38;;;;;;;15.95;3.28;;;;;;;13.11;58.15;100422.50;5030805;28;20041;-59
2021/09/27 10:34:16;;;;;;;16.20;3.38;;;;;;;12.99;58.23;100394.81;5031241;28;20120;-59
2021/09/27 10:36:51;;;;;;;7.88;2.97;;;;;;;12.92;58.31;100385.53;5035917;28;20034;-58
2021/09/27 10:39:18;;;;;;;12.75;3.20;;;;;;;13.15;58.25;100436.56;5030665;28;20469;-58
2021/09/27 10:41:57;;;;;;;14.82;3.80;;;;;;;13.22;58.20;100435.06;5031226;28;20036;-54
2021/09/27 10:44:28;;;;;;;19.55;3.70;;;;;;;13.03;58.73;100431.22;5031468;28;20168;-58
2021/09/27 10:47:02;;;;;;;22.05;3.47;;;;;;;12.83;59.21;100432.00;5031428;28;20036;-57
2021/09/27 10:49:41;;;;;;;17.00;4.25;;;;;;;12.72;59.94;100428.31;5030625;28;20117;-58
2021/09/27 10:52:09;;;;;;;16.20;3.88;;;;;;;12.65;60.12;100429.78;5029801;28;20496;-59
2021/09/27 10:54:55;;;;;;;22.60;4.03;;;;;;;12.76;60.08;100428.94;5030521;28;20130;-57
2021/09/27 10:57:24;;;;;;;17.08;3.40;;;;;;;13.00;58.92;100426.06;5031210;28;20025;-58
2021/09/27 11:00:11;;;;;;;14.45;3.88;;;;;;;13.33;58.56;100432.38;5029157;28;20026;-58
2021/09/27 11:02:43;;;;;;;16.77;3.83;;;;;;;13.44;57.66;100426.13;5030509;28;20021;-57
2021/09/27 11:05:21;;;;;;;16.35;3.50;;;;;;;13.61;57.23;100434.63;5046589;28;20055;-60
2021/09/27 11:07:53;;;;;;;18.35;4.30;;;;;;;13.54;57.14;100430.75;5048617;28;20129;-58
2021/09/27 11:10:26;;;;;;;12.63;3.78;;;;;;;13.44;57.35;100428.81;5042995;28;20045;-56
2021/09/27 11:12:53;;;;;;;11.90;3.53;;;;;;;13.28;57.96;100428.34;5038065;28;20034;-55
2021/09/27 11:15:30;;;;;;;15.82;4.20;;;;;;;13.37;58.31;100443.72;5030023;28;20034;-57
2021/09/27 11:18:01;;;;;;;13.07;4.22;;;;;;;13.38;57.88;100433.81;5031200;28;20026;-55
2021/09/27 11:20:30;;;;;;;17.25;3.88;;;;;;;13.39;57.41;100440.91;5030429;28;20060;-58
2021/09/27 11:22:55;;;;;;;22.02;4.28;;;;;;;13.26;57.04;100436.56;5030403;28;20061;-58
2021/09/27 11:25:20;;;;;;;12.88;3.53;;;;;;;13.18;57.27;100439.88;5031084;28;20061;-55
2021/09/27 11:28:03;;;;;;;15.45;3.95;;;;;;;13.11;58.03;100443.19;5033097;28;20074;-56
2021/09/27 11:30:41;;;;;;;18.85;3.63;;;;;;;12.97;58.34;100447.84;5034359;28;20037;-55
2021/09/27 11:33:35;;;;;;;17.98;4.05;;;;;;;12.89;58.78;100452.97;5033754;28;20029;-53
2021/09/27 11:36:31;;;;;;;14.90;3.88;;;;;;;12.68;58.97;100442.13;5033877;28;20033;-53
2021/09/27 11:39:06;;;;;;;17.52;4.22;;;;;;;12.61;59.50;100457.88;5033588;28;20038;-61
2021/09/27 11:41:36;;;;;;;14.02;4.00;;;;;;;12.49;59.47;100447.13;5033691;28;20047;-60
2021/09/27 11:44:28;;;;;;;16.15;3.63;;;;;;;12.58;59.99;100453.59;5032625;28;20037;-60
2021/09/27 11:47:06;;;;;;;17.60;4.10;;;;;;;12.46;60.01;100444.69;5033763;28;20056;-58
2021/09/27 11:50:04;;;;;;;17.92;4.57;;;;;;;12.62;60.05;100462.28;5032530;28;20029;-54
2021/09/27 11:52:40;;;;;;;20.10;4.43;;;;;;;12.56;60.49;100452.03;5031611;28;20359;-58
2021/09/27 11:55:20;;;;;;;12.00;3.80;;;;;;;12.51;61.23;100464.94;5032973;28;20379;-58
2021/09/27 11:57:56;;;;;;;12.35;4.10;;;;;;;12.39;61.92;100469.44;5033487;28;20489;-60
2021/09/27 12:00:26;;;;;;;;;;;;;;;12.64;60.40;100463.84;5033258;28;20106;-56
2021/09/27 12:03:24;;;;;;;14.15;4.50;;;;;;;12.43;61.77;100465.56;5032523;28;19917;-56
2021/09/27 12:05:49;;;;;;;19.55;4.82;;;;;;;12.30;61.74;100450.41;5033291;28;20036;-55